createdAt,value
2022-10-22T00:03:48.161Z,12.56
2022-10-22T00:08:52.350Z,12.90
2022-10-22T00:13:56.503Z,13.05
2022-10-22T00:19:00.676Z,13.02
2022-10-22T00:24:04.818Z,12.90
2022-10-22T00:29:08.960Z,13.02
2022-10-22T00:34:13.112Z,13.12
2022-10-22T00:39:17.314Z,13.13
2022-10-22T00:44:21.463Z,13.09
2022-10-22T00:49:25.597Z,13.08
2022-10-22T00:54:29.891Z,12.90
2022-10-22T00:59:33.975Z,12.79
2022-10-22T01:04:38.064Z,12.66
2022-10-22T01:09:42.267Z,12.55
2022-10-22T01:14:46.399Z,12.53
2022-10-22T01:19:50.598Z,12.51
2022-10-22T01:24:54.737Z,12.51
2022-10-22T01:29:58.894Z,12.49
2022-10-22T01:35:03.039Z,12.54
2022-10-22T01:40:07.194Z,12.56
2022-10-22T01:45:11.381Z,12.64
2022-10-22T01:50:13.651Z,12.72
2022-10-22T01:55:17.811Z,12.82
2022-10-22T02:00:21.977Z,12.74
2022-10-22T02:05:26.116Z,12.59
2022-10-22T02:10:30.304Z,12.62
2022-10-22T02:15:34.473Z,12.50
2022-10-22T02:20:38.583Z,12.38
2022-10-22T02:25:42.787Z,12.32
2022-10-22T02:30:46.906Z,12.26
2022-10-22T02:35:51.057Z,12.23
2022-10-22T02:40:55.233Z,12.19
2022-10-22T02:45:59.391Z,12.21
2022-10-22T02:51:03.545Z,12.21
2022-10-22T02:56:07.734Z,12.24
2022-10-22T03:01:15.261Z,12.16
2022-10-22T03:06:16.156Z,12.06
2022-10-22T03:11:20.208Z,12.01
2022-10-22T03:16:24.403Z,11.89
2022-10-22T03:21:28.519Z,11.78
2022-10-22T03:26:32.714Z,11.74
2022-10-22T03:31:36.837Z,11.81
2022-10-22T03:36:39.125Z,11.92
2022-10-22T03:41:43.283Z,11.93
2022-10-22T03:46:45.553Z,11.96
2022-10-22T03:51:49.731Z,12.36
2022-10-22T03:56:52.336Z,12.63
2022-10-22T04:01:56.245Z,12.85
2022-10-22T04:07:00.292Z,12.86
2022-10-22T04:12:04.465Z,12.86
2022-10-22T04:17:08.645Z,13.02
2022-10-22T04:22:12.759Z,12.93
2022-10-22T04:27:16.928Z,12.79
2022-10-22T04:32:21.336Z,12.63
2022-10-22T04:37:23.462Z,12.48
2022-10-22T04:42:27.532Z,12.62
2022-10-22T04:47:31.762Z,12.50
2022-10-22T04:52:35.858Z,12.43
2022-10-22T04:57:40.369Z,12.38
2022-10-22T05:02:44.165Z,12.52
2022-10-22T05:07:48.370Z,12.50
2022-10-22T05:12:52.519Z,12.46
2022-10-22T05:17:56.683Z,12.55
2022-10-22T05:23:00.800Z,12.76
2022-10-22T05:28:04.942Z,12.69
2022-10-22T05:33:09.146Z,12.56
2022-10-22T05:38:13.310Z,12.52
2022-10-22T05:43:15.550Z,12.76
2022-10-22T05:48:19.740Z,12.84
2022-10-22T05:53:23.888Z,13.07
2022-10-22T05:58:28.074Z,13.22
2022-10-22T06:03:32.181Z,13.31
2022-10-22T06:08:36.433Z,13.29
2022-10-22T06:13:40.534Z,13.32
2022-10-22T06:18:44.674Z,13.35
2022-10-22T06:23:49.398Z,13.36
2022-10-22T06:28:53.049Z,13.35
2022-10-22T06:33:57.137Z,13.41
2022-10-22T06:39:01.324Z,13.34
2022-10-22T06:44:05.473Z,13.42
2022-10-22T06:49:09.670Z,13.46
2022-10-22T06:54:13.829Z,13.61
2022-10-22T06:59:18.037Z,13.70
2022-10-22T07:04:22.136Z,13.90
2022-10-22T07:09:26.272Z,14.02
2022-10-22T07:14:30.435Z,14.12
2022-10-22T07:19:34.640Z,14.21
2022-10-22T07:24:38.814Z,14.22
2022-10-22T07:29:41.044Z,14.24
2022-10-22T07:34:45.216Z,14.25
2022-10-22T07:39:47.507Z,14.37
2022-10-22T07:44:51.654Z,14.42
2022-10-22T07:49:55.817Z,14.46
2022-10-22T07:54:59.961Z,14.58
2022-10-22T08:00:04.149Z,14.79
2022-10-22T08:05:08.288Z,15.02
2022-10-22T08:10:12.426Z,15.20
2022-10-22T08:15:16.583Z,15.30
2022-10-22T08:20:20.819Z,15.42
2022-10-22T08:25:24.936Z,15.63
2022-10-22T08:30:29.097Z,15.93
2022-10-22T08:35:33.346Z,16.08
2022-10-22T08:40:37.439Z,16.12
2022-10-22T08:45:41.596Z,16.27
2022-10-22T08:50:45.698Z,16.21
2022-10-22T08:55:53.891Z,16.20
2022-10-22T09:00:54.059Z,16.11
2022-10-22T09:05:58.172Z,16.04
2022-10-22T09:11:02.351Z,16.09
2022-10-22T09:16:06.553Z,16.09
2022-10-22T09:21:10.686Z,16.15
2022-10-22T09:26:12.926Z,16.24
2022-10-22T09:31:17.123Z,16.26
2022-10-22T09:36:19.381Z,16.25
2022-10-22T09:41:23.572Z,16.38
2022-10-22T09:46:25.778Z,16.37
2022-10-22T09:56:34.123Z,16.66
2022-10-22T10:01:38.289Z,16.59
2022-10-22T10:06:42.411Z,16.61
2022-10-22T10:11:46.570Z,16.57
2022-10-22T10:16:50.724Z,16.52
2022-10-22T10:21:54.916Z,16.49
2022-10-22T10:26:59.102Z,16.44
2022-10-22T10:32:03.262Z,16.41
2022-10-22T10:37:07.369Z,16.35
2022-10-22T10:42:11.543Z,16.30
2022-10-22T10:47:15.710Z,16.25
2022-10-22T10:52:21.389Z,16.22
2022-10-22T10:57:26.037Z,16.31
2022-10-22T11:02:28.191Z,16.49
2022-10-22T11:07:34.932Z,16.61
2022-10-22T11:12:36.496Z,16.67
2022-10-22T11:17:40.666Z,16.83
2022-10-22T11:23:13.112Z,16.80
2022-10-22T11:27:49.105Z,16.94
2022-10-22T11:32:53.160Z,16.91
2022-10-22T11:37:55.403Z,16.92
2022-10-22T11:42:59.587Z,16.82
2022-10-22T11:48:01.866Z,16.75
2022-10-22T11:53:06.042Z,16.71
2022-10-22T11:58:10.193Z,16.73
2022-10-22T12:03:14.306Z,16.78
2022-10-22T12:08:18.657Z,16.77
2022-10-22T12:13:22.652Z,16.83
2022-10-22T12:18:26.811Z,16.74
2022-10-22T12:23:30.971Z,16.76
2022-10-22T12:33:39.263Z,16.81
2022-10-22T12:38:43.437Z,16.82
2022-10-22T12:43:47.607Z,16.78
2022-10-22T12:48:51.762Z,16.81
2022-10-22T12:53:55.889Z,16.79
2022-10-22T12:59:00.087Z,16.89
2022-10-22T13:04:04.245Z,16.86
2022-10-22T13:14:12.557Z,16.91
2022-10-22T13:19:14.822Z,16.94
2022-10-22T13:24:26.008Z,16.90
2022-10-22T13:29:37.112Z,16.81
2022-10-22T13:34:48.354Z,16.85
2022-10-22T13:39:59.492Z,16.90
2022-10-22T13:45:10.641Z,16.90
2022-10-22T13:50:19.938Z,16.91
2022-10-22T13:55:24.112Z,16.90
2022-10-22T14:00:28.297Z,16.87
2022-10-22T14:05:32.385Z,16.92
2022-10-22T14:10:36.528Z,16.82
2022-10-22T14:15:40.777Z,16.69
2022-10-22T14:20:44.891Z,16.74
2022-10-22T14:25:49.033Z,16.77
2022-10-22T14:30:53.235Z,16.76
2022-10-22T14:35:57.378Z,16.68
2022-10-22T14:41:01.513Z,16.62
2022-10-22T14:46:05.724Z,16.58
2022-10-22T14:51:09.841Z,16.59
2022-10-22T14:56:13.993Z,16.51
2022-10-22T15:01:19.226Z,16.48
2022-10-22T15:06:22.345Z,16.46
2022-10-22T15:11:26.489Z,16.40
2022-10-22T15:16:31.123Z,16.32
2022-10-22T15:21:34.843Z,16.26
2022-10-22T15:26:38.960Z,16.20
2022-10-22T15:31:43.091Z,16.15
2022-10-22T15:36:45.387Z,16.18
2022-10-22T15:41:49.569Z,16.10
2022-10-22T15:46:53.707Z,16.09
2022-10-22T15:51:57.872Z,16.00
2022-10-22T15:57:02.025Z,15.86
2022-10-22T16:02:06.194Z,15.61
2022-10-22T16:07:10.339Z,15.39
2022-10-22T16:12:17.231Z,15.13
2022-10-22T16:17:18.658Z,14.80
2022-10-22T16:22:22.807Z,14.58
2022-10-22T16:27:26.992Z,14.32
2022-10-22T16:32:31.140Z,14.05
2022-10-22T16:42:39.450Z,13.40
2022-10-22T16:47:43.888Z,13.18
2022-10-22T16:52:47.807Z,13.03
2022-10-22T16:57:51.930Z,13.01
2022-10-22T17:02:56.094Z,13.10
2022-10-22T17:08:00.250Z,13.09
2022-10-22T17:13:04.421Z,13.11
2022-10-22T17:18:08.600Z,13.16
2022-10-22T17:23:10.859Z,13.15
2022-10-22T17:28:17.759Z,13.21
2022-10-22T17:33:19.284Z,13.02
2022-10-22T17:38:23.315Z,12.91
2022-10-22T17:43:27.518Z,12.77
2022-10-22T17:48:31.677Z,12.56
2022-10-22T17:53:35.815Z,12.31
2022-10-22T17:58:39.980Z,12.12
2022-10-22T18:03:44.118Z,12.04
2022-10-22T18:08:48.481Z,11.96
2022-10-22T18:13:52.455Z,11.85
2022-10-22T18:24:00.799Z,11.58
2022-10-22T18:29:04.934Z,11.55
2022-10-22T18:44:17.422Z,11.45
2022-10-22T18:54:30.943Z,11.80
2022-10-22T18:59:33.141Z,11.78
2022-10-22T19:04:44.321Z,11.79
2022-10-22T19:10:21.734Z,11.78
2022-10-22T19:14:57.836Z,11.69
2022-10-22T19:20:08.927Z,11.72
2022-10-22T19:25:20.081Z,11.69
2022-10-22T19:30:31.252Z,11.87
2022-10-22T19:35:42.533Z,11.76
2022-10-22T19:40:51.715Z,11.88
2022-10-22T19:45:55.895Z,11.88
2022-10-22T19:50:58.097Z,11.87
2022-10-22T19:56:02.264Z,11.85
2022-10-22T20:01:06.490Z,11.80
2022-10-22T20:06:08.755Z,11.74
2022-10-22T20:11:12.893Z,11.65
2022-10-22T20:16:17.039Z,11.58
2022-10-22T20:21:21.196Z,11.49
2022-10-22T20:26:25.367Z,11.56
2022-10-22T20:31:29.574Z,11.54
2022-10-22T20:36:33.658Z,11.53
2022-10-22T20:41:37.884Z,11.51
2022-10-22T20:46:42.023Z,11.47
2022-10-22T20:51:46.456Z,11.41
2022-10-22T20:56:50.315Z,11.29
2022-10-22T21:01:54.497Z,11.21
2022-10-22T21:06:58.687Z,11.37
2022-10-22T21:12:02.792Z,11.31
2022-10-22T21:17:07.006Z,11.30
2022-10-22T21:22:11.147Z,11.38
2022-10-22T21:27:15.328Z,11.46
2022-10-22T21:32:19.422Z,11.49
2022-10-22T21:37:21.731Z,11.48
2022-10-22T21:42:25.873Z,11.49
2022-10-22T21:47:30.075Z,11.44
2022-10-22T21:52:32.302Z,11.54
2022-10-22T21:57:36.492Z,11.63
2022-10-22T22:02:40.888Z,11.72
2022-10-22T22:07:42.916Z,11.73
2022-10-22T22:12:47.041Z,11.75
2022-10-22T22:17:51.245Z,11.70
2022-10-22T22:22:55.428Z,11.67
2022-10-22T22:27:59.592Z,11.65
2022-10-22T22:33:03.705Z,11.54
2022-10-22T22:38:07.879Z,11.57
2022-10-22T22:43:12.035Z,11.67
2022-10-22T22:48:16.224Z,11.57
2022-10-22T22:53:20.360Z,11.60
2022-10-22T22:58:24.609Z,11.53
2022-10-22T23:03:28.697Z,11.49
2022-10-22T23:08:32.896Z,11.63
2022-10-22T23:13:37.000Z,11.59
2022-10-22T23:18:41.199Z,11.57
2022-10-22T23:23:45.368Z,11.61
2022-10-22T23:28:49.522Z,11.65
2022-10-22T23:33:53.649Z,11.74
2022-10-22T23:38:57.854Z,11.70
2022-10-22T23:44:01.962Z,11.63
2022-10-22T23:49:06.182Z,11.64
2022-10-22T23:54:08.385Z,11.60
